sensor_id;sensor_type;location;lat;lon;timestamp;temperature;humidity
16955;DHT22;8594;52.052;8.354;2023-06-14T00:00:00;20.30;83.30
16955;DHT22;8594;52.052;8.354;2023-06-14T00:02:29;20.10;83.60
16955;DHT22;8594;52.052;8.354;2023-06-14T00:04:56;20.10;83.90
16955;DHT22;8594;52.052;8.354;2023-06-14T00:07:35;20.10;83.90
16955;DHT22;8594;52.052;8.354;2023-06-14T00:10:04;20.00;84.00
16955;DHT22;8594;52.052;8.354;2023-06-14T00:12:32;19.80;84.60
16955;DHT22;8594;52.052;8.354;2023-06-14T00:14:59;20.00;84.40
16955;DHT22;8594;52.052;8.354;2023-06-14T00:17:26;19.90;84.30
16955;DHT22;8594;52.052;8.354;2023-06-14T00:19:55;20.00;84.40
16955;DHT22;8594;52.052;8.354;2023-06-14T00:22:23;19.80;84.80
16955;DHT22;8594;52.052;8.354;2023-06-14T00:24:52;19.80;85.00
16955;DHT22;8594;52.052;8.354;2023-06-14T00:27:19;19.80;84.90
16955;DHT22;8594;52.052;8.354;2023-06-14T00:29:45;19.70;85.20
16955;DHT22;8594;52.052;8.354;2023-06-14T00:32:12;19.80;85.00
16955;DHT22;8594;52.052;8.354;2023-06-14T00:34:39;19.80;85.20
16955;DHT22;8594;52.052;8.354;2023-06-14T00:37:06;19.70;85.30
16955;DHT22;8594;52.052;8.354;2023-06-14T00:39:33;19.80;85.20
16955;DHT22;8594;52.052;8.354;2023-06-14T00:42:02;19.70;85.60
16955;DHT22;8594;52.052;8.354;2023-06-14T00:44:29;19.80;85.20
16955;DHT22;8594;52.052;8.354;2023-06-14T00:46:56;19.80;85.20
16955;DHT22;8594;52.052;8.354;2023-06-14T00:49:23;19.70;85.60
16955;DHT22;8594;52.052;8.354;2023-06-14T00:51:50;19.70;85.60
16955;DHT22;8594;52.052;8.354;2023-06-14T00:54:17;19.80;85.60
16955;DHT22;8594;52.052;8.354;2023-06-14T00:56:44;19.80;85.40
16955;DHT22;8594;52.052;8.354;2023-06-14T00:59:12;19.70;85.50
16955;DHT22;8594;52.052;8.354;2023-06-14T01:01:40;19.70;85.70
16955;DHT22;8594;52.052;8.354;2023-06-14T01:04:07;19.70;85.90
16955;DHT22;8594;52.052;8.354;2023-06-14T01:06:41;19.60;85.90
16955;DHT22;8594;52.052;8.354;2023-06-14T01:09:18;19.60;86.30
16955;DHT22;8594;52.052;8.354;2023-06-14T01:12:00;19.60;86.10
16955;DHT22;8594;52.052;8.354;2023-06-14T01:14:39;19.50;86.70
16955;DHT22;8594;52.052;8.354;2023-06-14T01:17:08;19.50;86.60
16955;DHT22;8594;52.052;8.354;2023-06-14T01:19:41;19.40;86.50
16955;DHT22;8594;52.052;8.354;2023-06-14T01:22:08;19.30;87.30
16955;DHT22;8594;52.052;8.354;2023-06-14T01:24:36;19.40;87.00
16955;DHT22;8594;52.052;8.354;2023-06-14T01:27:05;19.50;86.70
16955;DHT22;8594;52.052;8.354;2023-06-14T01:29:34;19.50;86.60
16955;DHT22;8594;52.052;8.354;2023-06-14T01:32:02;19.40;87.00
16955;DHT22;8594;52.052;8.354;2023-06-14T01:34:30;19.50;86.80
16955;DHT22;8594;52.052;8.354;2023-06-14T01:36:58;19.60;86.60
16955;DHT22;8594;52.052;8.354;2023-06-14T01:39:28;19.50;86.80
16955;DHT22;8594;52.052;8.354;2023-06-14T01:41:58;19.40;87.20
16955;DHT22;8594;52.052;8.354;2023-06-14T01:44:27;19.60;87.00
16955;DHT22;8594;52.052;8.354;2023-06-14T01:46:56;19.60;86.80
16955;DHT22;8594;52.052;8.354;2023-06-14T01:49:23;19.60;87.10
16955;DHT22;8594;52.052;8.354;2023-06-14T01:51:50;19.70;86.90
16955;DHT22;8594;52.052;8.354;2023-06-14T01:54:17;19.70;87.00
16955;DHT22;8594;52.052;8.354;2023-06-14T01:56:43;19.70;87.10
16955;DHT22;8594;52.052;8.354;2023-06-14T01:59:12;19.60;87.30
16955;DHT22;8594;52.052;8.354;2023-06-14T02:01:38;19.50;87.60
16955;DHT22;8594;52.052;8.354;2023-06-14T02:04:05;19.40;87.90
16955;DHT22;8594;52.052;8.354;2023-06-14T02:06:32;19.30;89.20
16955;DHT22;8594;52.052;8.354;2023-06-14T02:09:00;19.20;88.70
16955;DHT22;8594;52.052;8.354;2023-06-14T02:11:27;19.20;89.00
16955;DHT22;8594;52.052;8.354;2023-06-14T02:13:55;19.10;89.00
16955;DHT22;8594;52.052;8.354;2023-06-14T02:16:23;19.10;89.20
16955;DHT22;8594;52.052;8.354;2023-06-14T02:18:50;19.00;89.60
16955;DHT22;8594;52.052;8.354;2023-06-14T02:21:18;19.00;89.70
16955;DHT22;8594;52.052;8.354;2023-06-14T02:23:44;19.00;89.70
16955;DHT22;8594;52.052;8.354;2023-06-14T02:26:11;19.00;89.80
16955;DHT22;8594;52.052;8.354;2023-06-14T02:28:38;19.00;90.10
16955;DHT22;8594;52.052;8.354;2023-06-14T02:31:05;18.80;90.10
16955;DHT22;8594;52.052;8.354;2023-06-14T02:33:33;18.80;90.30
16955;DHT22;8594;52.052;8.354;2023-06-14T02:36:01;18.60;90.50
16955;DHT22;8594;52.052;8.354;2023-06-14T02:38:29;18.60;90.50
16955;DHT22;8594;52.052;8.354;2023-06-14T02:40:56;18.60;90.70
16955;DHT22;8594;52.052;8.354;2023-06-14T02:43:24;18.40;90.80
16955;DHT22;8594;52.052;8.354;2023-06-14T02:45:51;18.30;91.00
16955;DHT22;8594;52.052;8.354;2023-06-14T02:48:18;18.20;91.20
16955;DHT22;8594;52.052;8.354;2023-06-14T02:50:46;18.20;91.20
16955;DHT22;8594;52.052;8.354;2023-06-14T02:53:13;18.30;91.30
16955;DHT22;8594;52.052;8.354;2023-06-14T02:55:39;18.10;91.40
16955;DHT22;8594;52.052;8.354;2023-06-14T02:58:06;18.10;91.50
16955;DHT22;8594;52.052;8.354;2023-06-14T03:00:33;18.00;91.70
16955;DHT22;8594;52.052;8.354;2023-06-14T03:03:00;18.00;91.80
16955;DHT22;8594;52.052;8.354;2023-06-14T03:05:27;18.00;92.10
16955;DHT22;8594;52.052;8.354;2023-06-14T03:07:55;17.90;91.90
16955;DHT22;8594;52.052;8.354;2023-06-14T03:10:22;17.90;92.00
16955;DHT22;8594;52.052;8.354;2023-06-14T03:12:49;17.80;92.20
16955;DHT22;8594;52.052;8.354;2023-06-14T03:15:17;17.80;92.20
16955;DHT22;8594;52.052;8.354;2023-06-14T03:17:44;17.70;92.30
16955;DHT22;8594;52.052;8.354;2023-06-14T03:20:14;17.60;92.50
16955;DHT22;8594;52.052;8.354;2023-06-14T03:22:41;17.50;92.60
16955;DHT22;8594;52.052;8.354;2023-06-14T03:25:12;17.60;92.70
16955;DHT22;8594;52.052;8.354;2023-06-14T03:27:40;17.60;92.50
16955;DHT22;8594;52.052;8.354;2023-06-14T03:30:08;17.70;92.50
16955;DHT22;8594;52.052;8.354;2023-06-14T03:32:35;17.70;92.50
16955;DHT22;8594;52.052;8.354;2023-06-14T03:35:02;17.70;92.30
16955;DHT22;8594;52.052;8.354;2023-06-14T03:37:29;17.70;92.30
16955;DHT22;8594;52.052;8.354;2023-06-14T03:39:56;17.70;92.20
16955;DHT22;8594;52.052;8.354;2023-06-14T03:42:24;17.70;92.30
16955;DHT22;8594;52.052;8.354;2023-06-14T03:44:51;17.80;92.20
16955;DHT22;8594;52.052;8.354;2023-06-14T03:47:17;17.80;92.00
16955;DHT22;8594;52.052;8.354;2023-06-14T03:49:44;18.00;91.90
16955;DHT22;8594;52.052;8.354;2023-06-14T03:52:11;18.20;91.80
16955;DHT22;8594;52.052;8.354;2023-06-14T03:54:39;18.50;91.70
16955;DHT22;8594;52.052;8.354;2023-06-14T03:57:06;18.60;91.50
16955;DHT22;8594;52.052;8.354;2023-06-14T03:59:34;18.70;91.50
16955;DHT22;8594;52.052;8.354;2023-06-14T04:02:02;18.70;91.70
16955;DHT22;8594;52.052;8.354;2023-06-14T04:04:29;18.80;91.60
16955;DHT22;8594;52.052;8.354;2023-06-14T04:06:55;18.80;91.60
16955;DHT22;8594;52.052;8.354;2023-06-14T04:09:23;18.80;91.70
16955;DHT22;8594;52.052;8.354;2023-06-14T04:11:51;18.80;91.80
16955;DHT22;8594;52.052;8.354;2023-06-14T04:14:18;18.90;91.80
16955;DHT22;8594;52.052;8.354;2023-06-14T04:16:47;19.00;91.60
16955;DHT22;8594;52.052;8.354;2023-06-14T04:19:14;19.00;91.50
16955;DHT22;8594;52.052;8.354;2023-06-14T04:21:42;19.20;91.50
16955;DHT22;8594;52.052;8.354;2023-06-14T04:24:08;19.30;91.30
16955;DHT22;8594;52.052;8.354;2023-06-14T04:26:38;19.30;91.20
16955;DHT22;8594;52.052;8.354;2023-06-14T04:29:06;19.10;91.50
16955;DHT22;8594;52.052;8.354;2023-06-14T04:31:33;19.20;91.50
16955;DHT22;8594;52.052;8.354;2023-06-14T04:34:04;19.30;91.50
16955;DHT22;8594;52.052;8.354;2023-06-14T04:36:31;19.20;91.60
16955;DHT22;8594;52.052;8.354;2023-06-14T04:39:00;19.20;91.50
16955;DHT22;8594;52.052;8.354;2023-06-14T04:41:29;19.20;91.70
16955;DHT22;8594;52.052;8.354;2023-06-14T04:43:56;19.40;91.60
16955;DHT22;8594;52.052;8.354;2023-06-14T04:46:27;19.50;91.40
16955;DHT22;8594;52.052;8.354;2023-06-14T04:48:53;19.70;91.30
16955;DHT22;8594;52.052;8.354;2023-06-14T04:51:23;19.90;91.50
16955;DHT22;8594;52.052;8.354;2023-06-14T04:53:55;20.00;91.00
16955;DHT22;8594;52.052;8.354;2023-06-14T04:56:23;20.00;90.90
16955;DHT22;8594;52.052;8.354;2023-06-14T04:58:51;20.10;91.00
16955;DHT22;8594;52.052;8.354;2023-06-14T05:01:19;20.10;90.90
16955;DHT22;8594;52.052;8.354;2023-06-14T05:03:46;20.30;90.90
16955;DHT22;8594;52.052;8.354;2023-06-14T05:06:14;20.40;90.60
16955;DHT22;8594;52.052;8.354;2023-06-14T05:08:42;20.50;90.70
16955;DHT22;8594;52.052;8.354;2023-06-14T05:11:09;20.60;90.20
16955;DHT22;8594;52.052;8.354;2023-06-14T05:13:36;20.60;90.20
16955;DHT22;8594;52.052;8.354;2023-06-14T05:16:03;20.70;90.30
16955;DHT22;8594;52.052;8.354;2023-06-14T05:18:30;20.60;90.40
16955;DHT22;8594;52.052;8.354;2023-06-14T05:20:59;20.70;90.50
16955;DHT22;8594;52.052;8.354;2023-06-14T05:23:26;20.70;90.40
16955;DHT22;8594;52.052;8.354;2023-06-14T05:25:54;20.90;90.30
16955;DHT22;8594;52.052;8.354;2023-06-14T05:28:22;20.90;90.10
16955;DHT22;8594;52.052;8.354;2023-06-14T05:30:48;20.80;90.20
16955;DHT22;8594;52.052;8.354;2023-06-14T05:33:16;20.80;90.50
16955;DHT22;8594;52.052;8.354;2023-06-14T05:35:42;21.00;90.50
16955;DHT22;8594;52.052;8.354;2023-06-14T05:38:09;21.00;90.40
16955;DHT22;8594;52.052;8.354;2023-06-14T05:40:36;21.20;90.20
16955;DHT22;8594;52.052;8.354;2023-06-14T05:43:04;21.40;89.90
16955;DHT22;8594;52.052;8.354;2023-06-14T05:45:31;21.30;89.60
16955;DHT22;8594;52.052;8.354;2023-06-14T05:47:58;21.20;90.30
16955;DHT22;8594;52.052;8.354;2023-06-14T05:50:24;21.50;90.00
16955;DHT22;8594;52.052;8.354;2023-06-14T05:52:51;21.90;89.10
16955;DHT22;8594;52.052;8.354;2023-06-14T05:55:19;21.80;89.50
16955;DHT22;8594;52.052;8.354;2023-06-14T05:57:46;21.80;89.20
16955;DHT22;8594;52.052;8.354;2023-06-14T06:00:16;21.60;89.90
16955;DHT22;8594;52.052;8.354;2023-06-14T06:02:45;21.70;90.10
16955;DHT22;8594;52.052;8.354;2023-06-14T06:05:13;21.90;90.40
16955;DHT22;8594;52.052;8.354;2023-06-14T06:07:40;22.10;89.00
16955;DHT22;8594;52.052;8.354;2023-06-14T06:10:09;22.10;89.20
16955;DHT22;8594;52.052;8.354;2023-06-14T06:12:36;22.30;88.90
16955;DHT22;8594;52.052;8.354;2023-06-14T06:15:04;22.50;88.10
16955;DHT22;8594;52.052;8.354;2023-06-14T06:17:33;22.10;88.10
16955;DHT22;8594;52.052;8.354;2023-06-14T06:20:00;22.00;89.10
16955;DHT22;8594;52.052;8.354;2023-06-14T06:22:27;22.00;88.80
16955;DHT22;8594;52.052;8.354;2023-06-14T06:24:54;22.10;88.30
16955;DHT22;8594;52.052;8.354;2023-06-14T06:27:21;22.20;88.50
16955;DHT22;8594;52.052;8.354;2023-06-14T06:29:48;21.70;88.30
16955;DHT22;8594;52.052;8.354;2023-06-14T06:32:15;21.30;89.80
16955;DHT22;8594;52.052;8.354;2023-06-14T06:34:43;21.20;89.20
16955;DHT22;8594;52.052;8.354;2023-06-14T06:37:10;21.30;89.60
16955;DHT22;8594;52.052;8.354;2023-06-14T06:39:37;21.10;89.70
16955;DHT22;8594;52.052;8.354;2023-06-14T06:42:04;21.10;90.10
16955;DHT22;8594;52.052;8.354;2023-06-14T06:44:31;21.40;90.10
16955;DHT22;8594;52.052;8.354;2023-06-14T06:46:58;21.50;89.60
16955;DHT22;8594;52.052;8.354;2023-06-14T06:49:25;21.50;89.40
16955;DHT22;8594;52.052;8.354;2023-06-14T06:52:04;21.50;90.10
16955;DHT22;8594;52.052;8.354;2023-06-14T06:54:33;21.70;89.50
16955;DHT22;8594;52.052;8.354;2023-06-14T06:57:00;21.80;87.70
16955;DHT22;8594;52.052;8.354;2023-06-14T06:59:27;21.80;87.10
16955;DHT22;8594;52.052;8.354;2023-06-14T07:01:54;21.80;86.00
16955;DHT22;8594;52.052;8.354;2023-06-14T07:04:21;21.90;86.20
16955;DHT22;8594;52.052;8.354;2023-06-14T07:06:47;21.80;85.50
16955;DHT22;8594;52.052;8.354;2023-06-14T07:09:16;21.60;85.00
16955;DHT22;8594;52.052;8.354;2023-06-14T07:11:45;21.50;84.60
16955;DHT22;8594;52.052;8.354;2023-06-14T07:14:13;21.50;85.60
16955;DHT22;8594;52.052;8.354;2023-06-14T07:16:40;21.40;85.60
16955;DHT22;8594;52.052;8.354;2023-06-14T07:19:07;21.20;86.10
16955;DHT22;8594;52.052;8.354;2023-06-14T07:21:34;21.20;86.60
16955;DHT22;8594;52.052;8.354;2023-06-14T07:24:03;21.50;87.20
16955;DHT22;8594;52.052;8.354;2023-06-14T07:26:33;21.40;86.80
16955;DHT22;8594;52.052;8.354;2023-06-14T07:29:00;21.60;87.40
16955;DHT22;8594;52.052;8.354;2023-06-14T07:31:27;21.80;86.90
16955;DHT22;8594;52.052;8.354;2023-06-14T07:33:54;21.50;86.00
16955;DHT22;8594;52.052;8.354;2023-06-14T07:36:21;21.20;87.10
16955;DHT22;8594;52.052;8.354;2023-06-14T07:38:48;21.40;87.00
16955;DHT22;8594;52.052;8.354;2023-06-14T07:41:15;21.40;87.10
16955;DHT22;8594;52.052;8.354;2023-06-14T07:43:43;21.70;86.10
16955;DHT22;8594;52.052;8.354;2023-06-14T07:46:10;21.80;86.00
16955;DHT22;8594;52.052;8.354;2023-06-14T07:48:37;21.90;85.70
16955;DHT22;8594;52.052;8.354;2023-06-14T07:51:04;22.00;86.00
16955;DHT22;8594;52.052;8.354;2023-06-14T07:53:31;22.10;85.40
16955;DHT22;8594;52.052;8.354;2023-06-14T07:55:57;22.10;85.10
16955;DHT22;8594;52.052;8.354;2023-06-14T07:58:25;22.00;85.60
16955;DHT22;8594;52.052;8.354;2023-06-14T08:00:53;21.90;86.20
16955;DHT22;8594;52.052;8.354;2023-06-14T08:03:20;22.10;85.80
16955;DHT22;8594;52.052;8.354;2023-06-14T08:05:47;22.30;85.90
16955;DHT22;8594;52.052;8.354;2023-06-14T08:08:15;22.60;85.30
16955;DHT22;8594;52.052;8.354;2023-06-14T08:10:42;22.30;86.10
16955;DHT22;8594;52.052;8.354;2023-06-14T08:13:09;22.10;85.70
16955;DHT22;8594;52.052;8.354;2023-06-14T08:15:36;21.90;86.80
16955;DHT22;8594;52.052;8.354;2023-06-14T08:18:04;21.90;86.90
16955;DHT22;8594;52.052;8.354;2023-06-14T08:20:31;22.00;87.10
16955;DHT22;8594;52.052;8.354;2023-06-14T08:22:58;22.10;86.00
16955;DHT22;8594;52.052;8.354;2023-06-14T08:25:25;22.10;85.20
16955;DHT22;8594;52.052;8.354;2023-06-14T08:27:52;21.80;84.80
16955;DHT22;8594;52.052;8.354;2023-06-14T08:30:19;21.70;85.90
16955;DHT22;8594;52.052;8.354;2023-06-14T08:32:46;21.90;84.60
16955;DHT22;8594;52.052;8.354;2023-06-14T08:35:14;21.70;84.40
16955;DHT22;8594;52.052;8.354;2023-06-14T08:37:41;21.60;85.00
16955;DHT22;8594;52.052;8.354;2023-06-14T08:40:19;21.40;85.90
16955;DHT22;8594;52.052;8.354;2023-06-14T08:42:51;21.30;86.50
16955;DHT22;8594;52.052;8.354;2023-06-14T08:45:19;21.50;86.00
16955;DHT22;8594;52.052;8.354;2023-06-14T08:47:47;21.50;85.80
16955;DHT22;8594;52.052;8.354;2023-06-14T08:50:20;21.70;86.20
16955;DHT22;8594;52.052;8.354;2023-06-14T08:52:51;21.50;86.10
16955;DHT22;8594;52.052;8.354;2023-06-14T08:55:22;21.80;86.00
16955;DHT22;8594;52.052;8.354;2023-06-14T08:57:54;22.00;86.10
16955;DHT22;8594;52.052;8.354;2023-06-14T09:00:23;22.30;85.70
16955;DHT22;8594;52.052;8.354;2023-06-14T09:02:51;22.10;86.30
16955;DHT22;8594;52.052;8.354;2023-06-14T09:05:23;22.30;85.20
16955;DHT22;8594;52.052;8.354;2023-06-14T09:07:50;22.30;85.60
16955;DHT22;8594;52.052;8.354;2023-06-14T09:10:18;22.40;85.70
16955;DHT22;8594;52.052;8.354;2023-06-14T09:12:46;22.30;85.40
16955;DHT22;8594;52.052;8.354;2023-06-14T09:15:13;22.40;85.60
16955;DHT22;8594;52.052;8.354;2023-06-14T09:17:40;22.30;85.90
16955;DHT22;8594;52.052;8.354;2023-06-14T09:20:09;22.40;85.70
16955;DHT22;8594;52.052;8.354;2023-06-14T09:22:40;22.40;85.60
16955;DHT22;8594;52.052;8.354;2023-06-14T09:25:07;22.30;86.00
16955;DHT22;8594;52.052;8.354;2023-06-14T09:27:34;22.40;86.30
16955;DHT22;8594;52.052;8.354;2023-06-14T09:30:02;22.20;87.50
16955;DHT22;8594;52.052;8.354;2023-06-14T09:32:29;22.10;87.60
16955;DHT22;8594;52.052;8.354;2023-06-14T09:34:57;22.20;88.00
16955;DHT22;8594;52.052;8.354;2023-06-14T09:37:31;22.50;86.10
16955;DHT22;8594;52.052;8.354;2023-06-14T09:40:00;22.70;86.10
16955;DHT22;8594;52.052;8.354;2023-06-14T09:42:27;22.60;85.50
16955;DHT22;8594;52.052;8.354;2023-06-14T09:44:56;22.50;86.30
16955;DHT22;8594;52.052;8.354;2023-06-14T09:47:23;22.70;85.20
16955;DHT22;8594;52.052;8.354;2023-06-14T09:49:51;22.60;85.60
16955;DHT22;8594;52.052;8.354;2023-06-14T09:52:20;22.70;86.30
16955;DHT22;8594;52.052;8.354;2023-06-14T09:54:49;22.60;85.20
16955;DHT22;8594;52.052;8.354;2023-06-14T09:57:21;22.80;84.80
16955;DHT22;8594;52.052;8.354;2023-06-14T09:59:53;23.00;84.70
16955;DHT22;8594;52.052;8.354;2023-06-14T10:02:26;22.90;84.20
16955;DHT22;8594;52.052;8.354;2023-06-14T10:05:03;23.10;84.40
16955;DHT22;8594;52.052;8.354;2023-06-14T10:07:35;23.20;82.90
16955;DHT22;8594;52.052;8.354;2023-06-14T10:10:07;23.60;84.00
16955;DHT22;8594;52.052;8.354;2023-06-14T10:12:36;24.10;82.80
16955;DHT22;8594;52.052;8.354;2023-06-14T10:15:05;23.70;83.40
16955;DHT22;8594;52.052;8.354;2023-06-14T10:17:40;23.60;82.80
16955;DHT22;8594;52.052;8.354;2023-06-14T10:20:21;23.60;83.20
16955;DHT22;8594;52.052;8.354;2023-06-14T10:22:58;23.40;83.00
16955;DHT22;8594;52.052;8.354;2023-06-14T10:25:29;23.60;83.40
16955;DHT22;8594;52.052;8.354;2023-06-14T10:28:14;23.80;82.80
16955;DHT22;8594;52.052;8.354;2023-06-14T10:31:01;23.60;84.40
16955;DHT22;8594;52.052;8.354;2023-06-14T10:33:29;23.80;83.50
16955;DHT22;8594;52.052;8.354;2023-06-14T10:36:07;23.80;83.40
16955;DHT22;8594;52.052;8.354;2023-06-14T10:39:00;23.90;82.60
16955;DHT22;8594;52.052;8.354;2023-06-14T10:41:32;23.60;82.40
16955;DHT22;8594;52.052;8.354;2023-06-14T10:44:34;23.60;83.40
16955;DHT22;8594;52.052;8.354;2023-06-14T10:47:07;23.60;82.90
16955;DHT22;8594;52.052;8.354;2023-06-14T10:49:38;23.80;83.20
16955;DHT22;8594;52.052;8.354;2023-06-14T10:52:10;23.70;84.60
16955;DHT22;8594;52.052;8.354;2023-06-14T10:55:02;24.10;82.50
16955;DHT22;8594;52.052;8.354;2023-06-14T10:57:37;24.20;82.40
16955;DHT22;8594;52.052;8.354;2023-06-14T11:00:08;23.80;82.30
16955;DHT22;8594;52.052;8.354;2023-06-14T11:06:13;23.90;83.20
16955;DHT22;8594;52.052;8.354;2023-06-14T11:09:05;23.60;83.50
16955;DHT22;8594;52.052;8.354;2023-06-14T11:11:56;23.90;83.60
16955;DHT22;8594;52.052;8.354;2023-06-14T11:14:23;24.30;82.80
16955;DHT22;8594;52.052;8.354;2023-06-14T11:16:51;24.30;83.20
16955;DHT22;8594;52.052;8.354;2023-06-14T11:19:18;24.30;83.00
16955;DHT22;8594;52.052;8.354;2023-06-14T11:21:47;24.40;82.10
16955;DHT22;8594;52.052;8.354;2023-06-14T11:24:14;24.70;82.10
16955;DHT22;8594;52.052;8.354;2023-06-14T11:26:41;23.90;83.60
16955;DHT22;8594;52.052;8.354;2023-06-14T11:29:08;23.90;83.40
16955;DHT22;8594;52.052;8.354;2023-06-14T11:31:35;24.20;83.20
16955;DHT22;8594;52.052;8.354;2023-06-14T11:34:03;24.00;83.40
16955;DHT22;8594;52.052;8.354;2023-06-14T11:36:34;23.60;83.20
16955;DHT22;8594;52.052;8.354;2023-06-14T11:39:02;23.60;83.50
16955;DHT22;8594;52.052;8.354;2023-06-14T11:41:38;23.80;83.50
16955;DHT22;8594;52.052;8.354;2023-06-14T11:44:07;24.10;81.80
16955;DHT22;8594;52.052;8.354;2023-06-14T11:46:35;24.20;82.60
16955;DHT22;8594;52.052;8.354;2023-06-14T11:49:04;24.30;82.20
16955;DHT22;8594;52.052;8.354;2023-06-14T11:51:32;24.50;81.90
16955;DHT22;8594;52.052;8.354;2023-06-14T11:54:00;25.10;80.70
16955;DHT22;8594;52.052;8.354;2023-06-14T11:56:28;25.10;78.40
16955;DHT22;8594;52.052;8.354;2023-06-14T11:58:55;24.80;80.50
16955;DHT22;8594;52.052;8.354;2023-06-14T12:01:22;24.90;79.70
16955;DHT22;8594;52.052;8.354;2023-06-14T12:03:52;24.70;79.70
16955;DHT22;8594;52.052;8.354;2023-06-14T12:06:27;24.60;78.00
16955;DHT22;8594;52.052;8.354;2023-06-14T12:08:58;24.20;78.20
16955;DHT22;8594;52.052;8.354;2023-06-14T12:11:31;24.20;80.00
16955;DHT22;8594;52.052;8.354;2023-06-14T12:13:59;24.20;79.00
16955;DHT22;8594;52.052;8.354;2023-06-14T12:16:31;24.10;80.80
16955;DHT22;8594;52.052;8.354;2023-06-14T12:19:00;24.10;81.80
16955;DHT22;8594;52.052;8.354;2023-06-14T12:21:36;23.80;81.90
16955;DHT22;8594;52.052;8.354;2023-06-14T12:24:06;24.10;82.20
16955;DHT22;8594;52.052;8.354;2023-06-14T12:26:33;24.40;81.60
16955;DHT22;8594;52.052;8.354;2023-06-14T12:29:05;24.30;82.50
16955;DHT22;8594;52.052;8.354;2023-06-14T12:31:32;24.60;81.80
16955;DHT22;8594;52.052;8.354;2023-06-14T12:33:59;24.50;81.00
16955;DHT22;8594;52.052;8.354;2023-06-14T12:36:26;24.70;81.10
16955;DHT22;8594;52.052;8.354;2023-06-14T12:38:54;24.80;80.90
16955;DHT22;8594;52.052;8.354;2023-06-14T12:41:21;24.80;81.60
16955;DHT22;8594;52.052;8.354;2023-06-14T12:43:48;24.50;80.60
16955;DHT22;8594;52.052;8.354;2023-06-14T12:46:15;24.20;82.10
16955;DHT22;8594;52.052;8.354;2023-06-14T12:48:42;24.30;82.20
16955;DHT22;8594;52.052;8.354;2023-06-14T12:51:08;24.60;81.80
16955;DHT22;8594;52.052;8.354;2023-06-14T12:53:35;24.60;82.30
16955;DHT22;8594;52.052;8.354;2023-06-14T12:56:03;24.90;82.20
16955;DHT22;8594;52.052;8.354;2023-06-14T12:58:30;25.20;81.10
16955;DHT22;8594;52.052;8.354;2023-06-14T13:00:57;25.10;80.70
16955;DHT22;8594;52.052;8.354;2023-06-14T13:03:24;24.80;80.30
16955;DHT22;8594;52.052;8.354;2023-06-14T13:05:51;24.70;80.40
16955;DHT22;8594;52.052;8.354;2023-06-14T13:08:17;24.60;80.60
16955;DHT22;8594;52.052;8.354;2023-06-14T13:10:45;24.70;80.00
16955;DHT22;8594;52.052;8.354;2023-06-14T13:13:13;24.80;79.70
16955;DHT22;8594;52.052;8.354;2023-06-14T13:15:39;24.70;80.10
16955;DHT22;8594;52.052;8.354;2023-06-14T13:18:06;24.80;80.20
16955;DHT22;8594;52.052;8.354;2023-06-14T13:20:33;25.10;79.60
16955;DHT22;8594;52.052;8.354;2023-06-14T13:23:00;25.00;78.40
16955;DHT22;8594;52.052;8.354;2023-06-14T13:25:28;24.80;78.20
16955;DHT22;8594;52.052;8.354;2023-06-14T13:27:55;24.80;78.80
16955;DHT22;8594;52.052;8.354;2023-06-14T13:30:24;25.00;78.80
16955;DHT22;8594;52.052;8.354;2023-06-14T13:32:51;25.10;79.20
16955;DHT22;8594;52.052;8.354;2023-06-14T13:35:18;25.40;80.20
16955;DHT22;8594;52.052;8.354;2023-06-14T13:37:45;25.40;79.20
16955;DHT22;8594;52.052;8.354;2023-06-14T13:40:12;25.20;79.30
16955;DHT22;8594;52.052;8.354;2023-06-14T13:42:39;25.10;78.80
16955;DHT22;8594;52.052;8.354;2023-06-14T13:45:07;25.10;79.10
16955;DHT22;8594;52.052;8.354;2023-06-14T13:47:36;25.10;79.20
16955;DHT22;8594;52.052;8.354;2023-06-14T13:50:06;25.30;78.50
16955;DHT22;8594;52.052;8.354;2023-06-14T13:52:33;25.20;78.10
16955;DHT22;8594;52.052;8.354;2023-06-14T13:55:01;24.90;79.70
16955;DHT22;8594;52.052;8.354;2023-06-14T13:57:28;24.80;81.20
16955;DHT22;8594;52.052;8.354;2023-06-14T13:59:54;24.60;82.00
16955;DHT22;8594;52.052;8.354;2023-06-14T14:02:26;24.50;81.70
16955;DHT22;8594;52.052;8.354;2023-06-14T14:04:55;24.60;82.30
16955;DHT22;8594;52.052;8.354;2023-06-14T14:07:22;24.70;82.40
16955;DHT22;8594;52.052;8.354;2023-06-14T14:09:49;24.80;82.10
16955;DHT22;8594;52.052;8.354;2023-06-14T14:12:16;24.90;81.20
16955;DHT22;8594;52.052;8.354;2023-06-14T14:14:43;24.90;81.10
16955;DHT22;8594;52.052;8.354;2023-06-14T14:17:11;24.90;80.60
16955;DHT22;8594;52.052;8.354;2023-06-14T14:19:38;24.70;81.10
16955;DHT22;8594;52.052;8.354;2023-06-14T14:22:06;24.60;81.70
16955;DHT22;8594;52.052;8.354;2023-06-14T14:24:34;24.80;81.60
16955;DHT22;8594;52.052;8.354;2023-06-14T14:27:02;24.80;81.90
16955;DHT22;8594;52.052;8.354;2023-06-14T14:29:29;24.40;82.10
16955;DHT22;8594;52.052;8.354;2023-06-14T14:31:58;24.30;83.00
16955;DHT22;8594;52.052;8.354;2023-06-14T14:34:27;24.60;82.30
16955;DHT22;8594;52.052;8.354;2023-06-14T14:36:54;24.40;81.90
16955;DHT22;8594;52.052;8.354;2023-06-14T14:39:22;24.40;82.10
16955;DHT22;8594;52.052;8.354;2023-06-14T14:41:50;24.40;83.00
16955;DHT22;8594;52.052;8.354;2023-06-14T14:44:16;24.40;82.90
16955;DHT22;8594;52.052;8.354;2023-06-14T14:46:44;24.80;82.60
16955;DHT22;8594;52.052;8.354;2023-06-14T14:49:11;24.80;83.20
16955;DHT22;8594;52.052;8.354;2023-06-14T14:51:38;24.80;82.50
16955;DHT22;8594;52.052;8.354;2023-06-14T14:54:07;24.80;82.40
16955;DHT22;8594;52.052;8.354;2023-06-14T14:56:36;24.80;82.30
16955;DHT22;8594;52.052;8.354;2023-06-14T14:59:04;24.80;82.50
16955;DHT22;8594;52.052;8.354;2023-06-14T15:01:31;24.90;81.60
16955;DHT22;8594;52.052;8.354;2023-06-14T15:03:57;25.00;81.40
16955;DHT22;8594;52.052;8.354;2023-06-14T15:06:24;25.00;81.60
16955;DHT22;8594;52.052;8.354;2023-06-14T15:08:51;25.10;81.90
16955;DHT22;8594;52.052;8.354;2023-06-14T15:11:18;25.00;79.70
16955;DHT22;8594;52.052;8.354;2023-06-14T15:13:46;25.00;80.50
16955;DHT22;8594;52.052;8.354;2023-06-14T15:16:14;24.90;80.20
16955;DHT22;8594;52.052;8.354;2023-06-14T15:18:41;24.70;81.30
16955;DHT22;8594;52.052;8.354;2023-06-14T15:21:07;24.80;82.30
16955;DHT22;8594;52.052;8.354;2023-06-14T15:23:34;24.80;81.10
16955;DHT22;8594;52.052;8.354;2023-06-14T15:26:01;24.80;81.30
16955;DHT22;8594;52.052;8.354;2023-06-14T15:28:28;24.90;80.90
16955;DHT22;8594;52.052;8.354;2023-06-14T15:30:56;25.10;80.20
16955;DHT22;8594;52.052;8.354;2023-06-14T15:33:23;25.00;80.30
16955;DHT22;8594;52.052;8.354;2023-06-14T15:35:50;25.00;80.70
16955;DHT22;8594;52.052;8.354;2023-06-14T15:38:17;25.00;80.80
16955;DHT22;8594;52.052;8.354;2023-06-14T15:40:43;24.80;81.30
16955;DHT22;8594;52.052;8.354;2023-06-14T15:43:11;24.90;81.90
16955;DHT22;8594;52.052;8.354;2023-06-14T15:45:38;25.10;81.00
16955;DHT22;8594;52.052;8.354;2023-06-14T15:48:06;25.10;81.30
16955;DHT22;8594;52.052;8.354;2023-06-14T15:50:33;25.00;81.20
16955;DHT22;8594;52.052;8.354;2023-06-14T15:53:00;25.10;81.70
16955;DHT22;8594;52.052;8.354;2023-06-14T15:55:26;25.20;81.60